createdAt,value
2022-07-29T00:01:47.719Z,1.90
2022-07-29T00:04:17.504Z,2.00
2022-07-29T00:06:46.852Z,2.05
2022-07-29T00:09:16.817Z,2.10
2022-07-29T00:14:21.991Z,2.00
2022-07-29T00:16:54.500Z,2.30
2022-07-29T00:19:24.155Z,2.17
2022-07-29T00:21:56.293Z,2.10
2022-07-29T00:24:25.237Z,2.20
2022-07-29T00:26:54.044Z,2.35
2022-07-29T00:29:38.136Z,2.10
2022-07-29T00:32:09.878Z,2.13
2022-07-29T00:35:12.886Z,2.38
2022-07-29T00:37:45.446Z,2.13
2022-07-29T00:40:25.591Z,2.00
2022-07-29T00:42:57.608Z,2.25
2022-07-29T00:48:06.229Z,2.10
2022-07-29T00:50:37.162Z,2.30
2022-07-29T00:53:06.954Z,2.42
2022-07-29T00:55:37.421Z,2.10
2022-07-29T00:58:14.884Z,2.47
2022-07-29T01:00:45.865Z,2.45
2022-07-29T01:03:16.568Z,2.72
2022-07-29T01:05:51.636Z,2.72
2022-07-29T01:08:22.908Z,2.67
2022-07-29T01:10:54.775Z,3.35
2022-07-29T01:13:25.760Z,3.78
2022-07-29T01:16:00.047Z,4.20
2022-07-29T01:18:35.247Z,4.07
2022-07-29T01:21:33.011Z,3.83
2022-07-29T01:24:18.952Z,2.83
2022-07-29T01:26:52.148Z,3.08
2022-07-29T01:29:36.098Z,3.22
2022-07-29T01:32:27.591Z,2.60
2022-07-29T01:35:03.068Z,3.00
2022-07-29T01:37:39.440Z,2.78
2022-07-29T01:40:14.311Z,2.90
2022-07-29T01:42:47.852Z,3.15
2022-07-29T01:45:22.546Z,3.10
2022-07-29T01:48:00.569Z,3.22
2022-07-29T01:50:34.058Z,2.80
2022-07-29T01:53:07.634Z,3.22
2022-07-29T01:55:41.232Z,3.03
2022-07-29T01:58:11.923Z,2.90
2022-07-29T02:00:44.762Z,3.00
2022-07-29T02:03:16.674Z,3.05
2022-07-29T02:05:48.964Z,2.70
2022-07-29T02:08:19.614Z,2.95
2022-07-29T02:10:50.104Z,2.90
2022-07-29T02:13:21.649Z,2.75
2022-07-29T02:15:54.993Z,2.70
2022-07-29T02:18:28.003Z,2.67
2022-07-29T02:21:02.323Z,2.72
2022-07-29T02:23:45.018Z,2.60
2022-07-29T02:26:23.054Z,2.85
2022-07-29T02:28:54.619Z,2.20
2022-07-29T02:31:28.260Z,2.42
2022-07-29T02:33:59.306Z,2.85
2022-07-29T02:39:22.268Z,2.00
2022-07-29T02:44:31.248Z,2.40
2022-07-29T02:47:13.889Z,2.15
2022-07-29T02:49:52.799Z,2.30
2022-07-29T02:52:26.173Z,2.08
2022-07-29T02:54:58.788Z,2.10
2022-07-29T02:57:36.039Z,2.10
2022-07-29T03:00:26.357Z,1.95
2022-07-29T03:03:01.354Z,2.00
2022-07-29T03:05:31.283Z,2.05
2022-07-29T03:08:04.264Z,1.98
2022-07-29T03:10:34.113Z,2.25
2022-07-29T03:13:13.886Z,2.10
2022-07-29T03:15:47.142Z,2.45
2022-07-29T03:18:22.482Z,2.55
2022-07-29T03:20:55.193Z,2.42
2022-07-29T03:23:28.605Z,2.75
2022-07-29T03:37:07.441Z,2.58
2022-07-29T03:39:41.234Z,2.80
2022-07-29T03:42:13.170Z,4.47
2022-07-29T03:44:44.939Z,3.10
2022-07-29T03:47:22.727Z,2.35
2022-07-29T03:50:07.274Z,2.47
2022-07-29T03:52:45.511Z,2.50
2022-07-29T03:55:15.968Z,2.17
2022-07-29T03:57:45.819Z,2.33
2022-07-29T04:00:17.204Z,2.50
2022-07-29T04:02:50.524Z,2.50
2022-07-29T04:05:21.873Z,2.50
2022-07-29T04:07:56.369Z,2.50
2022-07-29T04:10:31.676Z,2.22
2022-07-29T04:13:02.690Z,2.17
2022-07-29T04:15:33.824Z,2.22
2022-07-29T04:18:04.142Z,2.40
2022-07-29T04:23:52.789Z,2.17
2022-07-29T04:26:25.370Z,2.28
2022-07-29T04:28:56.233Z,2.10
2022-07-29T04:31:29.646Z,2.10
2022-07-29T04:34:10.358Z,2.00
2022-07-29T04:36:48.945Z,2.28
2022-07-29T04:39:23.282Z,2.13
2022-07-29T05:15:53.797Z,2.00
2022-07-29T05:18:26.089Z,1.95
2022-07-29T05:20:55.777Z,1.50
2022-07-29T05:23:24.307Z,1.48
2022-07-29T05:25:53.308Z,1.80
2022-07-29T05:28:21.751Z,1.77
2022-07-29T05:30:51.630Z,1.60
2022-07-29T05:33:36.398Z,1.75
2022-07-29T05:36:18.141Z,1.40
2022-07-29T05:39:00.280Z,1.70
2022-07-29T05:41:28.943Z,1.60
2022-07-29T05:49:27.158Z,1.15
2022-07-29T05:51:57.951Z,1.40
2022-07-29T05:54:27.309Z,1.40
2022-07-29T05:56:57.004Z,1.58
2022-07-29T05:59:30.335Z,1.83
2022-07-29T06:02:01.018Z,1.40
2022-07-29T06:04:32.076Z,1.23
2022-07-29T06:07:01.099Z,1.60
2022-07-29T06:09:31.015Z,1.42
2022-07-29T06:12:00.754Z,1.50
2022-07-29T06:14:36.621Z,1.20
2022-07-29T06:17:13.310Z,1.25
2022-07-29T06:19:48.345Z,1.35
2022-07-29T06:22:48.456Z,1.40
2022-07-29T06:25:17.398Z,1.20
2022-07-29T06:27:49.316Z,1.30
2022-07-29T06:30:19.966Z,1.17
2022-07-29T06:33:40.480Z,1.40
2022-07-29T06:42:13.695Z,1.33
2022-07-29T07:00:15.161Z,1.13
2022-07-29T07:03:07.278Z,1.20
2022-07-29T07:05:45.489Z,1.15
2022-07-29T07:08:28.795Z,1.23
2022-07-29T07:13:43.336Z,0.90
2022-07-29T07:16:16.222Z,1.23
2022-07-29T07:18:46.409Z,1.20
2022-07-29T07:21:31.504Z,1.23
2022-07-29T07:24:00.465Z,0.90
2022-07-29T07:26:45.370Z,0.90
2022-07-29T07:29:15.057Z,0.90
2022-07-29T07:32:00.976Z,1.10
2022-07-29T07:40:53.039Z,1.40
2022-07-29T07:43:35.875Z,1.00
2022-07-29T08:01:47.890Z,1.13
2022-07-29T08:04:49.808Z,0.95
2022-07-29T08:07:38.084Z,1.17
2022-07-29T08:10:11.656Z,1.40
2022-07-29T08:12:54.690Z,0.90
2022-07-29T08:15:32.230Z,1.27
2022-07-29T08:18:10.630Z,0.90
2022-07-29T08:23:25.710Z,1.17
2022-07-29T08:26:04.008Z,1.30
2022-07-29T08:28:40.352Z,1.20
2022-07-29T08:31:09.559Z,1.08
2022-07-29T08:33:38.622Z,1.52
2022-07-29T08:36:09.102Z,0.93
2022-07-29T08:38:42.671Z,0.80
2022-07-29T08:56:31.813Z,0.52
2022-07-29T08:59:09.346Z,0.70
2022-07-29T09:15:14.194Z,0.73
2022-07-29T09:17:51.792Z,0.82
2022-07-29T09:20:50.177Z,0.98
2022-07-29T09:23:24.356Z,0.73
2022-07-29T09:25:55.830Z,0.70
2022-07-29T09:28:32.284Z,0.77
2022-07-29T09:31:03.997Z,0.60
2022-07-29T09:33:37.869Z,0.90
2022-07-29T09:36:15.267Z,0.63
2022-07-29T09:42:14.412Z,0.80
2022-07-29T09:44:47.937Z,0.60
2022-07-29T09:47:19.589Z,0.45
2022-07-29T09:50:00.669Z,0.70
2022-07-29T09:52:39.237Z,0.60
2022-07-29T09:55:13.544Z,0.70
2022-07-29T09:57:47.277Z,0.80
2022-07-29T10:00:20.428Z,0.57
2022-07-29T10:11:13.073Z,0.65
2022-07-29T10:13:51.798Z,0.70
2022-07-29T10:19:41.676Z,0.55
2022-07-29T10:22:57.766Z,0.57
2022-07-29T10:25:33.478Z,0.52
2022-07-29T10:31:01.318Z,0.55
2022-07-29T10:33:54.824Z,0.50
2022-07-29T10:42:55.029Z,0.50
2022-07-29T10:45:32.774Z,0.60
2022-07-29T10:48:10.801Z,0.60
2022-07-29T10:50:58.784Z,0.77
2022-07-29T10:53:52.122Z,0.50
2022-07-29T10:56:28.333Z,0.73
2022-07-29T10:59:32.455Z,0.73
2022-07-29T11:02:41.376Z,0.60
2022-07-29T11:05:14.166Z,0.82
2022-07-29T11:07:59.783Z,0.60
2022-07-29T11:10:35.727Z,0.60
2022-07-29T11:13:08.279Z,0.68
2022-07-29T11:15:57.768Z,0.45
2022-07-29T11:18:27.526Z,0.77
2022-07-29T11:21:06.592Z,0.50
2022-07-29T11:23:38.199Z,0.30
2022-07-29T11:26:23.558Z,0.60
2022-07-29T11:32:32.906Z,0.60
2022-07-29T11:45:45.190Z,0.50
2022-07-29T11:48:39.176Z,0.47
2022-07-29T11:54:30.223Z,0.63
2022-07-29T11:57:07.902Z,0.60
2022-07-29T11:59:48.010Z,0.50
2022-07-29T12:02:38.854Z,0.60
2022-07-29T12:17:50.085Z,0.50
2022-07-29T12:23:20.831Z,0.80
2022-07-29T12:25:59.475Z,0.77
2022-07-29T12:31:43.406Z,0.60
2022-07-29T12:43:36.536Z,0.98
2022-07-29T12:46:17.546Z,0.68
2022-07-29T12:48:47.565Z,1.00
2022-07-29T12:51:20.112Z,0.80
2022-07-29T12:54:07.235Z,0.82
2022-07-29T12:56:44.693Z,0.90
2022-07-29T13:01:45.985Z,1.20
2022-07-29T13:04:28.163Z,0.88
2022-07-29T13:07:10.509Z,0.95
2022-07-29T13:09:41.557Z,0.70
2022-07-29T13:12:11.637Z,0.90
2022-07-29T13:14:43.546Z,1.20
2022-07-29T13:17:14.745Z,0.70
2022-07-29T13:19:51.126Z,0.70
2022-07-29T13:32:03.980Z,0.70
2022-07-29T13:34:32.876Z,0.63
2022-07-29T13:37:02.355Z,0.50
2022-07-29T13:39:31.403Z,0.50
2022-07-29T13:42:00.591Z,0.40
2022-07-29T13:44:29.359Z,0.60
2022-07-29T13:46:59.986Z,0.50
2022-07-29T13:49:31.265Z,0.77
2022-07-29T13:52:00.148Z,1.05
2022-07-29T13:54:28.942Z,1.00
2022-07-29T13:56:57.601Z,0.60
2022-07-29T13:59:26.277Z,0.43
2022-07-29T14:01:54.947Z,0.52
2022-07-29T14:04:24.496Z,0.63
2022-07-29T14:06:54.410Z,0.70
2022-07-29T14:09:22.774Z,1.00
2022-07-29T14:11:52.553Z,1.20
2022-07-29T14:14:21.680Z,1.00
2022-07-29T14:16:52.345Z,1.00
2022-07-29T14:19:21.065Z,1.08
2022-07-29T14:21:49.793Z,0.80
2022-07-29T14:24:21.676Z,0.90
2022-07-29T14:26:52.505Z,1.05
2022-07-29T14:29:21.034Z,0.70
2022-07-29T14:31:49.671Z,0.90
2022-07-29T14:34:18.408Z,0.70
2022-07-29T14:36:47.201Z,0.70
2022-07-29T14:39:16.829Z,0.40
2022-07-29T14:41:47.384Z,0.55
2022-07-29T14:44:16.531Z,0.60
2022-07-29T14:46:59.293Z,0.70
2022-07-29T14:49:28.625Z,0.50
2022-07-29T14:51:58.073Z,1.02
2022-07-29T14:57:16.427Z,0.80
2022-07-29T14:59:45.664Z,0.40
2022-07-29T15:04:54.750Z,0.80
2022-07-29T15:07:23.716Z,0.57
2022-07-29T15:09:54.870Z,0.77
2022-07-29T15:12:33.377Z,0.85
2022-07-29T15:15:02.003Z,0.82
2022-07-29T15:17:34.181Z,0.60
2022-07-29T15:20:03.304Z,0.60
2022-07-29T15:22:34.515Z,0.75
2022-07-29T15:25:03.617Z,0.60
2022-07-29T15:27:35.003Z,1.00
2022-07-29T15:30:04.951Z,2.13
2022-07-29T15:32:34.848Z,0.98
2022-07-29T15:35:04.295Z,1.83
2022-07-29T15:37:48.831Z,1.50
2022-07-29T15:40:18.900Z,1.70
2022-07-29T15:42:50.071Z,1.75
2022-07-29T15:45:20.187Z,1.80
2022-07-29T15:47:49.656Z,1.88
2022-07-29T15:53:09.472Z,0.80
2022-07-29T15:58:38.571Z,0.80
2022-07-29T16:04:27.448Z,0.73
2022-07-29T16:07:05.686Z,0.77
2022-07-29T16:16:02.198Z,1.00
2022-07-29T16:30:34.911Z,1.17
2022-07-29T16:33:22.165Z,1.45
2022-07-29T16:35:51.766Z,0.90
2022-07-29T16:38:31.579Z,1.10
2022-07-29T16:41:00.734Z,1.00
2022-07-29T16:43:31.677Z,1.10
2022-07-29T16:46:01.384Z,1.10
2022-07-29T16:48:31.170Z,0.80
2022-07-29T16:51:00.092Z,1.00
2022-07-29T16:53:30.221Z,1.00
2022-07-29T16:55:59.045Z,1.08
2022-07-29T16:58:27.885Z,1.13
2022-07-29T17:00:59.045Z,1.30
2022-07-29T17:03:27.910Z,1.75
2022-07-29T17:05:57.232Z,1.25
2022-07-29T17:08:27.437Z,1.70
2022-07-29T17:10:56.592Z,1.60
2022-07-29T17:13:33.290Z,1.40
2022-07-29T17:16:03.518Z,1.25
2022-07-29T17:18:32.729Z,1.48
2022-07-29T17:21:02.551Z,1.10
2022-07-29T17:23:31.271Z,1.40
2022-07-29T17:26:00.293Z,1.38
2022-07-29T17:28:28.745Z,1.20
2022-07-29T17:30:58.344Z,1.30
2022-07-29T17:33:29.145Z,1.58
2022-07-29T17:36:26.931Z,1.30
2022-07-29T17:38:58.450Z,1.60
2022-07-29T17:44:56.016Z,1.40
2022-07-29T17:47:39.970Z,1.60
2022-07-29T17:50:26.057Z,1.95
2022-07-29T17:56:38.805Z,2.03
2022-07-29T18:05:56.894Z,2.72
2022-07-29T18:09:08.895Z,1.00
2022-07-29T18:12:00.164Z,1.65
2022-07-29T18:14:58.276Z,1.27
2022-07-29T18:17:52.837Z,1.33
2022-07-29T18:20:26.101Z,1.60
2022-07-29T18:22:55.994Z,1.35
2022-07-29T18:25:25.850Z,1.55
2022-07-29T18:27:59.893Z,1.58
2022-07-29T18:30:29.609Z,1.58
2022-07-29T18:33:20.359Z,1.63
2022-07-29T18:38:18.530Z,1.92
2022-07-29T18:40:48.235Z,2.33
2022-07-29T18:43:20.662Z,2.60
2022-07-29T18:45:51.730Z,2.28
2022-07-29T18:48:21.375Z,2.03
2022-07-29T18:50:50.512Z,2.20
2022-07-29T18:53:21.243Z,2.05
2022-07-29T18:55:50.300Z,1.95
2022-07-29T18:58:19.142Z,2.47
2022-07-29T19:00:48.074Z,1.90
2022-07-29T19:03:18.440Z,2.67
2022-07-29T19:05:47.821Z,2.10
2022-07-29T19:08:17.235Z,3.83
2022-07-29T19:10:49.552Z,4.53
2022-07-29T19:13:18.838Z,1.90
2022-07-29T19:15:50.539Z,2.55
2022-07-29T19:18:21.233Z,1.85
2022-07-29T19:20:50.404Z,2.15
2022-07-29T19:23:19.877Z,2.00
2022-07-29T19:25:53.418Z,9.98
2022-07-29T19:28:27.694Z,5.15
2022-07-29T19:31:00.238Z,2.03
2022-07-29T19:33:29.573Z,1.70
2022-07-29T19:35:58.611Z,2.00
2022-07-29T19:38:28.072Z,2.15
2022-07-29T19:40:59.186Z,1.70
2022-07-29T19:43:52.171Z,2.00
2022-07-29T19:46:18.458Z,1.50
2022-07-29T19:48:47.859Z,2.03
2022-07-29T19:57:14.381Z,1.90
2022-07-29T19:59:55.934Z,3.55
2022-07-29T20:02:28.274Z,2.70
2022-07-29T20:04:58.344Z,2.10
2022-07-29T20:07:29.782Z,2.33
2022-07-29T20:10:05.789Z,2.10
2022-07-29T20:29:06.354Z,3.10
2022-07-29T20:31:44.968Z,2.08
2022-07-29T20:34:22.788Z,2.28
2022-07-29T20:36:56.471Z,2.10
2022-07-29T20:39:26.245Z,2.42
2022-07-29T20:41:56.874Z,2.30
2022-07-29T20:44:26.223Z,2.90
2022-07-29T20:46:58.279Z,2.95
2022-07-29T20:49:39.085Z,3.13
2022-07-29T20:52:21.559Z,2.92
2022-07-29T21:07:01.520Z,4.30
2022-07-29T21:09:32.383Z,5.75
2022-07-29T21:14:54.189Z,4.40
2022-07-29T21:17:36.603Z,3.78
2022-07-29T21:20:19.099Z,3.90
2022-07-29T21:22:59.152Z,3.50
2022-07-29T21:28:21.889Z,3.05
2022-07-29T21:30:53.545Z,3.40
2022-07-29T21:36:42.778Z,3.30
2022-07-29T21:41:45.369Z,3.13
2022-07-29T21:44:19.288Z,3.10
2022-07-29T21:46:50.190Z,3.10
2022-07-29T21:49:20.658Z,3.90
2022-07-29T21:51:49.931Z,3.20
2022-07-29T21:54:25.427Z,3.17
2022-07-29T21:56:58.101Z,3.30
2022-07-29T21:59:27.408Z,3.00
2022-07-29T22:02:01.678Z,3.03
2022-07-29T22:04:31.315Z,13.43
2022-07-29T22:07:01.905Z,3.17
2022-07-29T22:09:34.369Z,3.50
2022-07-29T22:12:04.089Z,3.50
2022-07-29T22:14:33.596Z,3.33
2022-07-29T22:17:09.905Z,2.97
2022-07-29T22:19:40.736Z,2.90
2022-07-29T22:22:10.551Z,3.10
2022-07-29T22:24:44.251Z,3.05
2022-07-29T22:27:15.636Z,2.60
2022-07-29T22:29:46.403Z,2.83
2022-07-29T22:32:17.503Z,2.53
2022-07-29T22:34:51.620Z,3.10
2022-07-29T22:37:21.628Z,2.70
2022-07-29T22:39:55.846Z,3.13
2022-07-29T22:45:01.322Z,2.92
2022-07-29T23:00:46.809Z,2.80
2022-07-29T23:03:16.323Z,2.80
2022-07-29T23:05:47.532Z,2.80
2022-07-29T23:08:16.907Z,3.05
2022-07-29T23:10:49.747Z,2.65
2022-07-29T23:13:18.966Z,2.88
2022-07-29T23:15:50.408Z,2.83
2022-07-29T23:20:54.973Z,2.33
2022-07-29T23:23:24.879Z,2.63
2022-07-29T23:26:02.529Z,2.45
2022-07-29T23:28:31.547Z,2.38
2022-07-29T23:31:17.664Z,2.70
2022-07-29T23:33:46.937Z,2.55
2022-07-29T23:36:15.486Z,2.70
2022-07-29T23:38:46.458Z,2.45
2022-07-29T23:41:16.919Z,3.00
2022-07-29T23:43:46.300Z,2.47
2022-07-29T23:46:15.301Z,2.67
2022-07-29T23:48:44.304Z,2.80
2022-07-29T23:51:13.277Z,2.30
2022-07-29T23:53:53.038Z,2.78
2022-07-29T23:56:24.838Z,2.65
2022-07-29T23:58:55.351Z,2.90
